sensor_id;sensor_type;location;lat;lon;timestamp;pressure;altitude;pressure_sealevel;temperature;humidity
55032;BME280;40928;51.076;7.950;2023-04-30T00:01:39;97615.00;;;5.20;100.00
55032;BME280;40928;51.076;7.950;2023-04-30T00:04:04;97605.16;;;5.14;100.00
55032;BME280;40928;51.076;7.950;2023-04-30T00:06:30;97611.25;;;5.08;100.00
55032;BME280;40928;51.076;7.950;2023-04-30T00:08:56;97613.00;;;5.00;100.00
55032;BME280;40928;51.076;7.950;2023-04-30T00:11:21;97602.16;;;4.95;100.00
55032;BME280;40928;51.076;7.950;2023-04-30T00:13:47;97610.28;;;4.94;100.00
55032;BME280;40928;51.076;7.950;2023-04-30T00:16:13;97606.19;;;4.91;100.00
55032;BME280;40928;51.076;7.950;2023-04-30T00:18:38;97602.91;;;4.89;100.00
55032;BME280;40928;51.076;7.950;2023-04-30T00:21:04;97613.88;;;4.86;100.00
55032;BME280;40928;51.076;7.950;2023-04-30T00:23:29;97606.50;;;4.81;100.00
55032;BME280;40928;51.076;7.950;2023-04-30T00:25:55;97606.06;;;4.78;100.00
55032;BME280;40928;51.076;7.950;2023-04-30T00:28:20;97608.44;;;4.72;100.00
55032;BME280;40928;51.076;7.950;2023-04-30T00:30:46;97613.28;;;4.69;100.00
55032;BME280;40928;51.076;7.950;2023-04-30T00:33:11;97615.50;;;4.65;100.00
55032;BME280;40928;51.076;7.950;2023-04-30T00:35:37;97604.63;;;4.60;100.00
55032;BME280;40928;51.076;7.950;2023-04-30T00:38:03;97610.50;;;4.55;100.00
55032;BME280;40928;51.076;7.950;2023-04-30T00:40:28;97610.00;;;4.52;100.00
55032;BME280;40928;51.076;7.950;2023-04-30T00:42:55;97605.75;;;4.51;100.00
55032;BME280;40928;51.076;7.950;2023-04-30T00:45:21;97611.06;;;4.51;100.00
55032;BME280;40928;51.076;7.950;2023-04-30T00:47:47;97614.50;;;4.51;100.00
55032;BME280;40928;51.076;7.950;2023-04-30T00:50:14;97616.34;;;4.51;100.00
55032;BME280;40928;51.076;7.950;2023-04-30T00:52:44;97612.41;;;4.47;100.00
55032;BME280;40928;51.076;7.950;2023-04-30T00:55:12;97620.53;;;4.45;100.00
55032;BME280;40928;51.076;7.950;2023-04-30T00:57:39;97621.44;;;4.37;100.00
55032;BME280;40928;51.076;7.950;2023-04-30T01:00:06;97625.47;;;4.33;100.00
55032;BME280;40928;51.076;7.950;2023-04-30T01:02:34;97627.84;;;4.28;100.00
55032;BME280;40928;51.076;7.950;2023-04-30T01:05:02;97624.91;;;4.23;100.00
55032;BME280;40928;51.076;7.950;2023-04-30T01:07:28;97629.75;;;4.19;100.00
55032;BME280;40928;51.076;7.950;2023-04-30T01:09:54;97627.31;;;4.18;100.00
55032;BME280;40928;51.076;7.950;2023-04-30T01:12:42;97636.25;;;4.17;100.00
55032;BME280;40928;51.076;7.950;2023-04-30T01:18:19;97640.25;;;4.13;100.00
55032;BME280;40928;51.076;7.950;2023-04-30T01:20:53;97638.50;;;4.05;100.00
55032;BME280;40928;51.076;7.950;2023-04-30T01:23:36;97645.00;;;4.02;100.00
55032;BME280;40928;51.076;7.950;2023-04-30T01:26:18;97635.22;;;4.03;100.00
55032;BME280;40928;51.076;7.950;2023-04-30T01:28:46;97637.31;;;4.07;100.00
55032;BME280;40928;51.076;7.950;2023-04-30T01:31:17;97643.34;;;4.16;100.00
55032;BME280;40928;51.076;7.950;2023-04-30T01:33:43;97641.16;;;4.20;100.00
55032;BME280;40928;51.076;7.950;2023-04-30T01:36:20;97635.88;;;4.20;100.00
55032;BME280;40928;51.076;7.950;2023-04-30T01:39:05;97631.03;;;4.23;100.00
55032;BME280;40928;51.076;7.950;2023-04-30T01:41:38;97637.78;;;4.26;100.00
55032;BME280;40928;51.076;7.950;2023-04-30T01:44:28;97626.00;;;4.29;100.00
55032;BME280;40928;51.076;7.950;2023-04-30T01:47:03;97632.78;;;4.31;100.00
55032;BME280;40928;51.076;7.950;2023-04-30T01:52:18;97628.13;;;4.33;100.00
55032;BME280;40928;51.076;7.950;2023-04-30T01:54:52;97629.75;;;4.34;100.00
55032;BME280;40928;51.076;7.950;2023-04-30T01:57:27;97623.84;;;4.32;100.00
55032;BME280;40928;51.076;7.950;2023-04-30T01:59:53;97634.22;;;4.34;100.00
55032;BME280;40928;51.076;7.950;2023-04-30T02:02:18;97624.63;;;4.33;100.00
55032;BME280;40928;51.076;7.950;2023-04-30T02:04:45;97618.53;;;4.32;100.00
55032;BME280;40928;51.076;7.950;2023-04-30T02:07:12;97627.94;;;4.35;100.00
55032;BME280;40928;51.076;7.950;2023-04-30T02:09:42;97627.94;;;4.35;100.00
55032;BME280;40928;51.076;7.950;2023-04-30T02:12:07;97633.03;;;4.36;100.00
55032;BME280;40928;51.076;7.950;2023-04-30T02:14:33;97633.03;;;4.36;100.00
55032;BME280;40928;51.076;7.950;2023-04-30T02:16:58;97630.13;;;4.31;100.00
55032;BME280;40928;51.076;7.950;2023-04-30T02:19:23;97639.41;;;4.27;100.00
55032;BME280;40928;51.076;7.950;2023-04-30T02:21:49;97635.31;;;4.24;100.00
55032;BME280;40928;51.076;7.950;2023-04-30T02:24:14;97637.78;;;4.26;100.00
55032;BME280;40928;51.076;7.950;2023-04-30T02:26:40;97633.94;;;4.29;100.00
55032;BME280;40928;51.076;7.950;2023-04-30T02:29:05;97630.13;;;4.31;100.00
55032;BME280;40928;51.076;7.950;2023-04-30T02:31:31;97643.69;;;4.28;100.00
55032;BME280;40928;51.076;7.950;2023-04-30T02:33:56;97639.41;;;4.27;100.00
55032;BME280;40928;51.076;7.950;2023-04-30T02:36:22;97627.03;;;4.13;100.00
55032;BME280;40928;51.076;7.950;2023-04-30T02:38:47;97632.88;;;4.08;100.00
55032;BME280;40928;51.076;7.950;2023-04-30T02:41:13;97637.13;;;3.94;100.00
55032;BME280;40928;51.076;7.950;2023-04-30T02:43:39;97634.31;;;3.95;100.00
55032;BME280;40928;51.076;7.950;2023-04-30T02:46:04;97636.41;;;4.00;100.00
55032;BME280;40928;51.076;7.950;2023-04-30T02:48:30;97633.78;;;4.00;100.00
55032;BME280;40928;51.076;7.950;2023-04-30T02:50:56;97640.06;;;3.99;100.00
55032;BME280;40928;51.076;7.950;2023-04-30T02:53:21;97648.97;;;3.98;100.00
55032;BME280;40928;51.076;7.950;2023-04-30T02:55:47;97639.56;;;3.80;100.00
55032;BME280;40928;51.076;7.950;2023-04-30T02:58:12;97637.78;;;3.81;100.00
55032;BME280;40928;51.076;7.950;2023-04-30T03:00:38;97635.28;;;3.79;100.00
55032;BME280;40928;51.076;7.950;2023-04-30T03:03:03;97639.78;;;3.79;100.00
55032;BME280;40928;51.076;7.950;2023-04-30T03:05:29;97640.03;;;3.84;100.00
55032;BME280;40928;51.076;7.950;2023-04-30T03:07:55;97645.97;;;3.86;100.00
55032;BME280;40928;51.076;7.950;2023-04-30T03:10:20;97647.44;;;3.89;100.00
55032;BME280;40928;51.076;7.950;2023-04-30T03:12:46;97645.16;;;3.86;100.00
55032;BME280;40928;51.076;7.950;2023-04-30T03:15:11;97645.06;;;3.79;100.00
55032;BME280;40928;51.076;7.950;2023-04-30T03:17:37;97641.31;;;3.73;100.00
55032;BME280;40928;51.076;7.950;2023-04-30T03:20:02;97645.56;;;3.74;100.00
55032;BME280;40928;51.076;7.950;2023-04-30T03:22:29;97646.75;;;3.72;100.00
55032;BME280;40928;51.076;7.950;2023-04-30T03:24:54;97642.94;;;3.74;100.00
55032;BME280;40928;51.076;7.950;2023-04-30T03:27:20;97643.94;;;3.73;100.00
55032;BME280;40928;51.076;7.950;2023-04-30T03:29:45;97643.31;;;3.71;100.00
55032;BME280;40928;51.076;7.950;2023-04-30T03:32:11;97636.75;;;3.67;100.00
55032;BME280;40928;51.076;7.950;2023-04-30T03:34:37;97644.84;;;3.65;100.00
55032;BME280;40928;51.076;7.950;2023-04-30T03:37:02;97646.84;;;3.63;100.00
55032;BME280;40928;51.076;7.950;2023-04-30T03:39:28;97636.75;;;3.67;100.00
55032;BME280;40928;51.076;7.950;2023-04-30T03:41:53;97636.84;;;3.74;100.00
55032;BME280;40928;51.076;7.950;2023-04-30T03:44:19;97634.00;;;3.75;100.00
55032;BME280;40928;51.076;7.950;2023-04-30T03:46:44;97635.66;;;3.76;100.00
55032;BME280;40928;51.076;7.950;2023-04-30T03:49:10;97630.19;;;3.78;100.00
55032;BME280;40928;51.076;7.950;2023-04-30T03:51:36;97642.66;;;3.84;100.00
55032;BME280;40928;51.076;7.950;2023-04-30T03:54:07;97632.75;;;3.86;100.00
55032;BME280;40928;51.076;7.950;2023-04-30T03:56:34;97638.22;;;3.85;100.00
55032;BME280;40928;51.076;7.950;2023-04-30T03:59:00;97636.13;;;3.80;100.00
55032;BME280;40928;51.076;7.950;2023-04-30T04:01:28;97637.78;;;3.81;100.00
55032;BME280;40928;51.076;7.950;2023-04-30T04:03:55;97640.94;;;3.76;100.00
55032;BME280;40928;51.076;7.950;2023-04-30T04:06:20;97629.91;;;3.73;100.00
55032;BME280;40928;51.076;7.950;2023-04-30T04:08:46;97642.75;;;3.76;100.00
55032;BME280;40928;51.076;7.950;2023-04-30T04:11:12;97632.44;;;3.66;100.00
55032;BME280;40928;51.076;7.950;2023-04-30T04:13:38;97642.22;;;3.65;100.00
55032;BME280;40928;51.076;7.950;2023-04-30T04:16:04;97639.91;;;3.62;100.00
55032;BME280;40928;51.076;7.950;2023-04-30T04:18:30;97642.22;;;3.65;100.00
55032;BME280;40928;51.076;7.950;2023-04-30T04:20:55;97641.19;;;3.66;100.00
55032;BME280;40928;51.076;7.950;2023-04-30T04:23:21;97634.44;;;3.64;100.00
55032;BME280;40928;51.076;7.950;2023-04-30T04:25:47;97631.81;;;3.64;100.00
55032;BME280;40928;51.076;7.950;2023-04-30T04:28:16;97646.75;;;3.57;100.00
55032;BME280;40928;51.076;7.950;2023-04-30T04:30:42;97647.34;;;3.59;100.00
55032;BME280;40928;51.076;7.950;2023-04-30T04:33:08;97637.81;;;3.58;100.00
55032;BME280;40928;51.076;7.950;2023-04-30T04:35:34;97642.47;;;3.56;100.00
55032;BME280;40928;51.076;7.950;2023-04-30T04:38:00;97645.44;;;3.53;100.00
55032;BME280;40928;51.076;7.950;2023-04-30T04:40:26;97647.25;;;3.52;100.00
55032;BME280;40928;51.076;7.950;2023-04-30T04:42:52;97643.16;;;3.49;100.00
55032;BME280;40928;51.076;7.950;2023-04-30T04:45:17;97648.13;;;3.44;100.00
55032;BME280;40928;51.076;7.950;2023-04-30T04:47:45;97649.69;;;3.39;100.00
55032;BME280;40928;51.076;7.950;2023-04-30T04:50:12;97649.22;;;3.35;100.00
55032;BME280;40928;51.076;7.950;2023-04-30T04:52:38;97650.41;;;3.32;100.00
55032;BME280;40928;51.076;7.950;2023-04-30T04:55:04;97654.03;;;3.31;100.00
55032;BME280;40928;51.076;7.950;2023-04-30T04:57:31;97652.56;;;3.29;100.00
55032;BME280;40928;51.076;7.950;2023-04-30T04:59:57;97654.72;;;3.25;100.00
55032;BME280;40928;51.076;7.950;2023-04-30T05:02:22;97661.66;;;3.26;100.00
55032;BME280;40928;51.076;7.950;2023-04-30T05:04:49;97659.66;;;3.28;100.00
55032;BME280;40928;51.076;7.950;2023-04-30T05:07:17;97656.50;;;3.33;100.00
55032;BME280;40928;51.076;7.950;2023-04-30T05:09:44;97661.59;;;3.34;100.00
55032;BME280;40928;51.076;7.950;2023-04-30T05:12:10;97655.78;;;3.39;100.00
55032;BME280;40928;51.076;7.950;2023-04-30T05:14:35;97669.25;;;3.44;100.00
55032;BME280;40928;51.076;7.950;2023-04-30T05:17:01;97670.56;;;3.48;100.00
55032;BME280;40928;51.076;7.950;2023-04-30T05:19:27;97665.75;;;3.52;100.00
55032;BME280;40928;51.076;7.950;2023-04-30T05:21:52;97663.09;;;3.52;100.00
55032;BME280;40928;51.076;7.950;2023-04-30T05:24:18;97669.84;;;3.55;100.00
55032;BME280;40928;51.076;7.950;2023-04-30T05:26:43;97678.44;;;3.57;100.00
55032;BME280;40928;51.076;7.950;2023-04-30T05:29:09;97679.44;;;3.56;100.00
55032;BME280;40928;51.076;7.950;2023-04-30T05:31:36;97673.66;;;3.52;100.00
55032;BME280;40928;51.076;7.950;2023-04-30T05:34:02;97679.59;;;3.54;100.00
55032;BME280;40928;51.076;7.950;2023-04-30T05:36:27;97680.44;;;3.55;100.00
55032;BME280;40928;51.076;7.950;2023-04-30T05:38:53;97678.53;;;3.63;100.00
55032;BME280;40928;51.076;7.950;2023-04-30T05:41:20;97680.28;;;3.71;100.00
55032;BME280;40928;51.076;7.950;2023-04-30T05:43:46;97677.09;;;3.76;100.00
55032;BME280;40928;51.076;7.950;2023-04-30T05:46:12;97690.59;;;3.81;100.00
55032;BME280;40928;51.076;7.950;2023-04-30T05:48:37;97682.84;;;3.79;100.00
55032;BME280;40928;51.076;7.950;2023-04-30T05:51:03;97686.78;;;3.84;100.00
55032;BME280;40928;51.076;7.950;2023-04-30T05:53:30;97690.72;;;3.88;100.00
55032;BME280;40928;51.076;7.950;2023-04-30T05:55:56;97690.81;;;3.94;100.00
55032;BME280;40928;51.076;7.950;2023-04-30T05:58:22;97693.91;;;3.98;100.00
55032;BME280;40928;51.076;7.950;2023-04-30T06:00:51;97689.44;;;3.99;100.00
55032;BME280;40928;51.076;7.950;2023-04-30T06:03:17;97692.38;;;4.04;100.00
55032;BME280;40928;51.076;7.950;2023-04-30T06:05:44;97697.09;;;4.08;100.00
55032;BME280;40928;51.076;7.950;2023-04-30T06:08:09;97692.47;;;4.10;100.00
55032;BME280;40928;51.076;7.950;2023-04-30T06:10:35;97698.03;;;4.16;100.00
55032;BME280;40928;51.076;7.950;2023-04-30T06:13:00;97688.91;;;4.18;100.00
55032;BME280;40928;51.076;7.950;2023-04-30T06:15:26;97692.28;;;4.27;100.00
55032;BME280;40928;51.076;7.950;2023-04-30T06:17:51;97692.38;;;4.34;100.00
55032;BME280;40928;51.076;7.950;2023-04-30T06:20:17;97699.59;;;4.40;100.00
55032;BME280;40928;51.076;7.950;2023-04-30T06:22:43;97694.03;;;4.50;100.00
55032;BME280;40928;51.076;7.950;2023-04-30T06:25:08;97703.16;;;4.62;100.00
55032;BME280;40928;51.076;7.950;2023-04-30T06:27:34;97694.94;;;4.72;100.00
55032;BME280;40928;51.076;7.950;2023-04-30T06:29:59;97691.66;;;4.70;100.00
55032;BME280;40928;51.076;7.950;2023-04-30T06:32:25;97696.75;;;4.71;100.00
55032;BME280;40928;51.076;7.950;2023-04-30T06:34:51;97689.81;;;4.70;100.00
55032;BME280;40928;51.076;7.950;2023-04-30T06:37:16;97698.91;;;4.83;100.00
55032;BME280;40928;51.076;7.950;2023-04-30T06:39:43;97699.75;;;4.83;100.00
55032;BME280;40928;51.076;7.950;2023-04-30T06:42:08;97688.03;;;4.93;100.00
55032;BME280;40928;51.076;7.950;2023-04-30T06:44:34;97689.75;;;5.00;100.00
55032;BME280;40928;51.076;7.950;2023-04-30T06:47:00;97681.34;;;5.12;100.00
55032;BME280;40928;51.076;7.950;2023-04-30T06:49:25;97690.16;;;5.19;100.00
55032;BME280;40928;51.076;7.950;2023-04-30T06:51:51;97690.94;;;5.34;100.00
55032;BME280;40928;51.076;7.950;2023-04-30T06:54:16;97692.25;;;5.45;100.00
55032;BME280;40928;51.076;7.950;2023-04-30T06:56:42;97687.28;;;5.57;100.00
55032;BME280;40928;51.076;7.950;2023-04-30T06:59:09;97688.34;;;5.63;100.00
55032;BME280;40928;51.076;7.950;2023-04-30T07:01:34;97689.66;;;5.74;100.00
55032;BME280;40928;51.076;7.950;2023-04-30T07:04:00;97692.22;;;5.89;100.00
55032;BME280;40928;51.076;7.950;2023-04-30T07:06:26;97696.25;;;6.06;100.00
55032;BME280;40928;51.076;7.950;2023-04-30T07:08:51;97681.06;;;6.22;100.00
55032;BME280;40928;51.076;7.950;2023-04-30T07:11:17;97693.34;;;6.30;100.00
55032;BME280;40928;51.076;7.950;2023-04-30T07:13:42;97688.91;;;6.37;100.00
55032;BME280;40928;51.076;7.950;2023-04-30T07:16:08;97680.16;;;6.43;100.00
55032;BME280;40928;51.076;7.950;2023-04-30T07:18:35;97692.34;;;6.66;100.00
55032;BME280;40928;51.076;7.950;2023-04-30T07:21:00;97688.75;;;6.87;100.00
55032;BME280;40928;51.076;7.950;2023-04-30T07:23:26;97686.78;;;7.09;100.00
55032;BME280;40928;51.076;7.950;2023-04-30T07:25:51;97684.91;;;7.03;100.00
55032;BME280;40928;51.076;7.950;2023-04-30T07:28:16;97685.13;;;7.08;100.00
55032;BME280;40928;51.076;7.950;2023-04-30T07:30:42;97691.47;;;7.14;100.00
55032;BME280;40928;51.076;7.950;2023-04-30T07:33:07;97684.38;;;7.21;100.00
55032;BME280;40928;51.076;7.950;2023-04-30T07:35:33;97682.94;;;7.32;100.00
55032;BME280;40928;51.076;7.950;2023-04-30T07:37:59;97681.91;;;7.40;100.00
55032;BME280;40928;51.076;7.950;2023-04-30T07:40:25;97679.94;;;7.62;100.00
55032;BME280;40928;51.076;7.950;2023-04-30T07:42:50;97681.97;;;7.73;100.00
55032;BME280;40928;51.076;7.950;2023-04-30T07:45:16;97682.19;;;7.85;100.00
55032;BME280;40928;51.076;7.950;2023-04-30T07:47:41;97685.66;;;7.92;100.00
55032;BME280;40928;51.076;7.950;2023-04-30T07:50:07;97684.44;;;8.08;100.00
55032;BME280;40928;51.076;7.950;2023-04-30T07:52:32;97679.91;;;8.02;100.00
55032;BME280;40928;51.076;7.950;2023-04-30T07:54:58;97683.59;;;8.01;100.00
55032;BME280;40928;51.076;7.950;2023-04-30T07:57:24;97680.13;;;8.01;100.00
55032;BME280;40928;51.076;7.950;2023-04-30T07:59:53;97682.56;;;8.16;100.00
55032;BME280;40928;51.076;7.950;2023-04-30T08:02:18;97681.50;;;8.30;100.00
55032;BME280;40928;51.076;7.950;2023-04-30T08:04:44;97682.31;;;8.44;100.00
55032;BME280;40928;51.076;7.950;2023-04-30T08:07:09;97683.25;;;8.77;100.00
55032;BME280;40928;51.076;7.950;2023-04-30T08:09:35;97675.38;;;9.02;100.00
55032;BME280;40928;51.076;7.950;2023-04-30T08:12:00;97683.25;;;9.22;100.00
55032;BME280;40928;51.076;7.950;2023-04-30T08:14:26;97685.91;;;9.54;100.00
55032;BME280;40928;51.076;7.950;2023-04-30T08:16:51;97689.88;;;9.77;100.00
55032;BME280;40928;51.076;7.950;2023-04-30T08:19:17;97689.44;;;9.80;100.00
55032;BME280;40928;51.076;7.950;2023-04-30T08:21:43;97688.69;;;9.98;100.00
55032;BME280;40928;51.076;7.950;2023-04-30T08:24:08;97684.19;;;10.17;100.00
55032;BME280;40928;51.076;7.950;2023-04-30T08:26:34;97697.19;;;10.32;100.00
55032;BME280;40928;51.076;7.950;2023-04-30T08:28:59;97687.44;;;10.45;100.00
55032;BME280;40928;51.076;7.950;2023-04-30T08:31:25;97687.22;;;10.65;100.00
55032;BME280;40928;51.076;7.950;2023-04-30T08:33:50;97689.38;;;10.75;100.00
55032;BME280;40928;51.076;7.950;2023-04-30T08:36:16;97697.16;;;10.95;100.00
55032;BME280;40928;51.076;7.950;2023-04-30T08:38:41;97699.81;;;11.14;100.00
55032;BME280;40928;51.076;7.950;2023-04-30T08:41:13;97698.34;;;11.30;100.00
55032;BME280;40928;51.076;7.950;2023-04-30T08:43:42;97695.53;;;11.43;100.00
55032;BME280;40928;51.076;7.950;2023-04-30T08:46:11;97689.03;;;11.51;100.00
55032;BME280;40928;51.076;7.950;2023-04-30T08:48:41;97695.31;;;11.68;100.00
55032;BME280;40928;51.076;7.950;2023-04-30T08:51:06;97688.75;;;11.83;100.00
55032;BME280;40928;51.076;7.950;2023-04-30T08:53:36;97683.13;;;11.72;100.00
55032;BME280;40928;51.076;7.950;2023-04-30T08:56:04;97694.09;;;11.83;100.00
55032;BME280;40928;51.076;7.950;2023-04-30T08:58:30;97679.75;;;11.77;100.00
55032;BME280;40928;51.076;7.950;2023-04-30T09:00:57;97683.94;;;11.61;100.00
55032;BME280;40928;51.076;7.950;2023-04-30T09:03:24;97685.88;;;11.54;100.00
55032;BME280;40928;51.076;7.950;2023-04-30T09:05:49;97677.28;;;11.52;100.00
55032;BME280;40928;51.076;7.950;2023-04-30T09:08:18;97692.41;;;11.58;100.00
55032;BME280;40928;51.076;7.950;2023-04-30T09:11:24;97685.41;;;11.57;100.00
55032;BME280;40928;51.076;7.950;2023-04-30T09:13:51;97682.09;;;11.73;100.00
55032;BME280;40928;51.076;7.950;2023-04-30T09:16:47;97678.59;;;11.85;100.00
55032;BME280;40928;51.076;7.950;2023-04-30T09:19:29;97679.00;;;12.00;100.00
55032;BME280;40928;51.076;7.950;2023-04-30T09:21:55;97680.66;;;12.25;100.00
55032;BME280;40928;51.076;7.950;2023-04-30T09:24:22;97675.84;;;12.51;99.34
55032;BME280;40928;51.076;7.950;2023-04-30T09:26:47;97671.88;;;12.66;97.75
55032;BME280;40928;51.076;7.950;2023-04-30T09:29:14;97672.41;;;12.91;98.04
55032;BME280;40928;51.076;7.950;2023-04-30T09:31:45;97670.56;;;12.80;93.95
55032;BME280;40928;51.076;7.950;2023-04-30T09:34:11;97662.44;;;12.75;97.85
55032;BME280;40928;51.076;7.950;2023-04-30T09:36:51;97667.50;;;12.88;97.36
55032;BME280;40928;51.076;7.950;2023-04-30T09:39:19;97659.19;;;13.02;94.23
55032;BME280;40928;51.076;7.950;2023-04-30T09:41:45;97662.00;;;13.24;96.31
55032;BME280;40928;51.076;7.950;2023-04-30T09:47:19;97663.00;;;14.54;80.92
55032;BME280;40928;51.076;7.950;2023-04-30T09:49:51;97657.34;;;14.95;77.83
55032;BME280;40928;51.076;7.950;2023-04-30T09:52:18;97653.25;;;15.15;73.97
55032;BME280;40928;51.076;7.950;2023-04-30T09:54:44;97662.34;;;15.09;72.83
55032;BME280;40928;51.076;7.950;2023-04-30T09:57:12;97652.13;;;14.66;73.38
55032;BME280;40928;51.076;7.950;2023-04-30T09:59:43;97645.66;;;14.62;72.45
55032;BME280;40928;51.076;7.950;2023-04-30T10:02:08;97637.47;;;14.74;71.58
55032;BME280;40928;51.076;7.950;2023-04-30T10:04:42;97643.00;;;15.39;66.26
55032;BME280;40928;51.076;7.950;2023-04-30T10:07:12;97641.59;;;15.31;65.20
55032;BME280;40928;51.076;7.950;2023-04-30T10:09:40;97637.91;;;15.43;62.38
55032;BME280;40928;51.076;7.950;2023-04-30T10:12:14;97631.53;;;15.49;63.94
55032;BME280;40928;51.076;7.950;2023-04-30T10:14:46;97639.66;;;16.24;63.49
55032;BME280;40928;51.076;7.950;2023-04-30T10:17:13;97623.97;;;16.74;57.87
55032;BME280;40928;51.076;7.950;2023-04-30T10:19:45;97629.84;;;16.56;56.92
55032;BME280;40928;51.076;7.950;2023-04-30T10:22:10;97626.53;;;17.07;56.30
55032;BME280;40928;51.076;7.950;2023-04-30T10:24:36;97626.28;;;17.03;55.46
55032;BME280;40928;51.076;7.950;2023-04-30T10:27:05;97618.88;;;16.83;54.84
55032;BME280;40928;51.076;7.950;2023-04-30T10:29:31;97616.72;;;16.75;53.56
55032;BME280;40928;51.076;7.950;2023-04-30T10:31:57;97622.00;;;17.39;52.62
55032;BME280;40928;51.076;7.950;2023-04-30T10:37:49;97602.13;;;18.57;50.59
55032;BME280;40928;51.076;7.950;2023-04-30T10:40:18;97602.38;;;19.21;47.19
55032;BME280;40928;51.076;7.950;2023-04-30T10:42:48;97606.50;;;19.08;48.88
55032;BME280;40928;51.076;7.950;2023-04-30T10:45:17;97596.53;;;19.04;48.00
55032;BME280;40928;51.076;7.950;2023-04-30T10:47:45;97604.16;;;18.91;48.23
55032;BME280;40928;51.076;7.950;2023-04-30T10:50:11;97595.09;;;18.61;48.09
55032;BME280;40928;51.076;7.950;2023-04-30T10:52:37;97599.25;;;19.04;46.83
55032;BME280;40928;51.076;7.950;2023-04-30T10:55:04;97592.53;;;19.70;45.52
55032;BME280;40928;51.076;7.950;2023-04-30T10:57:30;97591.25;;;19.62;45.40
55032;BME280;40928;51.076;7.950;2023-04-30T11:02:43;97579.41;;;20.61;43.26
55032;BME280;40928;51.076;7.950;2023-04-30T11:05:16;97575.97;;;20.06;42.38
55032;BME280;40928;51.076;7.950;2023-04-30T11:07:56;97567.41;;;20.67;42.98
55032;BME280;40928;51.076;7.950;2023-04-30T11:10:23;97563.25;;;21.32;42.72
55032;BME280;40928;51.076;7.950;2023-04-30T11:12:52;97570.81;;;21.16;41.76
55032;BME280;40928;51.076;7.950;2023-04-30T11:15:26;97570.25;;;21.00;41.73
55032;BME280;40928;51.076;7.950;2023-04-30T11:17:56;97558.94;;;20.93;41.43
55032;BME280;40928;51.076;7.950;2023-04-30T11:20:23;97563.31;;;20.89;41.86
55032;BME280;40928;51.076;7.950;2023-04-30T11:23:12;97565.34;;;20.34;43.33
55032;BME280;40928;51.076;7.950;2023-04-30T11:25:43;97551.88;;;20.05;43.71
55032;BME280;40928;51.076;7.950;2023-04-30T11:28:17;97552.13;;;20.03;43.66
55032;BME280;40928;51.076;7.950;2023-04-30T11:30:56;97553.13;;;20.37;42.33
55032;BME280;40928;51.076;7.950;2023-04-30T11:33:25;97555.69;;;20.91;41.71
55032;BME280;40928;51.076;7.950;2023-04-30T11:35:52;97549.22;;;21.25;40.72
55032;BME280;40928;51.076;7.950;2023-04-30T11:38:25;97547.63;;;21.57;40.50
55032;BME280;40928;51.076;7.950;2023-04-30T11:40:51;97546.53;;;21.25;40.25
55032;BME280;40928;51.076;7.950;2023-04-30T11:43:32;97544.41;;;21.03;40.85
55032;BME280;40928;51.076;7.950;2023-04-30T11:46:16;97543.97;;;20.76;40.20
55032;BME280;40928;51.076;7.950;2023-04-30T11:48:45;97537.75;;;20.51;41.53
55032;BME280;40928;51.076;7.950;2023-04-30T11:51:15;97533.84;;;20.38;41.93
55032;BME280;40928;51.076;7.950;2023-04-30T11:53:40;97535.75;;;20.38;41.85
55032;BME280;40928;51.076;7.950;2023-04-30T11:56:06;97532.63;;;20.26;42.79
55032;BME280;40928;51.076;7.950;2023-04-30T11:58:36;97521.84;;;20.45;41.77
55032;BME280;40928;51.076;7.950;2023-04-30T12:01:08;97520.09;;;20.73;40.77
55032;BME280;40928;51.076;7.950;2023-04-30T12:03:45;97512.09;;;20.63;40.20
55032;BME280;40928;51.076;7.950;2023-04-30T12:06:20;97519.56;;;20.71;41.75
55032;BME280;40928;51.076;7.950;2023-04-30T12:08:46;97516.59;;;20.92;39.92
55032;BME280;40928;51.076;7.950;2023-04-30T12:11:21;97512.69;;;20.60;41.57
55032;BME280;40928;51.076;7.950;2023-04-30T12:14:10;97521.34;;;20.18;41.71
55032;BME280;40928;51.076;7.950;2023-04-30T12:19:08;97505.84;;;20.43;40.61
55032;BME280;40928;51.076;7.950;2023-04-30T12:21:34;97515.22;;;20.07;42.62
55032;BME280;40928;51.076;7.950;2023-04-30T12:24:00;97515.75;;;19.80;42.42
55032;BME280;40928;51.076;7.950;2023-04-30T12:26:36;97517.72;;;19.45;42.07
55032;BME280;40928;51.076;7.950;2023-04-30T12:29:17;97510.34;;;19.21;42.68
55032;BME280;40928;51.076;7.950;2023-04-30T12:31:44;97511.63;;;18.89;42.58
55032;BME280;40928;51.076;7.950;2023-04-30T12:34:12;97510.28;;;18.92;42.81
55032;BME280;40928;51.076;7.950;2023-04-30T12:36:39;97505.59;;;19.02;42.65
55032;BME280;40928;51.076;7.950;2023-04-30T12:39:14;97501.66;;;19.24;44.02
55032;BME280;40928;51.076;7.950;2023-04-30T12:41:47;97502.06;;;19.42;43.18
55032;BME280;40928;51.076;7.950;2023-04-30T12:44:20;97510.22;;;19.37;42.55
55032;BME280;40928;51.076;7.950;2023-04-30T12:46:51;97508.19;;;19.18;44.33
55032;BME280;40928;51.076;7.950;2023-04-30T12:49:28;97502.25;;;19.16;44.65
55032;BME280;40928;51.076;7.950;2023-04-30T12:52:10;97498.84;;;19.35;45.28
55032;BME280;40928;51.076;7.950;2023-04-30T12:54:36;97496.53;;;19.52;42.63
55032;BME280;40928;51.076;7.950;2023-04-30T12:57:11;97490.16;;;19.67;42.78
55032;BME280;40928;51.076;7.950;2023-04-30T12:59:55;97483.00;;;19.52;42.25
55032;BME280;40928;51.076;7.950;2023-04-30T13:02:26;97482.94;;;19.28;42.72
55032;BME280;40928;51.076;7.950;2023-04-30T13:04:53;97487.72;;;19.07;43.28
55032;BME280;40928;51.076;7.950;2023-04-30T13:07:19;97490.03;;;18.84;44.25
55032;BME280;40928;51.076;7.950;2023-04-30T13:09:45;97478.56;;;18.58;44.79
55032;BME280;40928;51.076;7.950;2023-04-30T13:12:10;97483.34;;;18.21;45.20
55032;BME280;40928;51.076;7.950;2023-04-30T13:14:36;97479.91;;;18.00;46.05
55032;BME280;40928;51.076;7.950;2023-04-30T13:17:03;97474.50;;;17.84;46.43
55032;BME280;40928;51.076;7.950;2023-04-30T13:19:31;97466.66;;;17.98;46.19
55032;BME280;40928;51.076;7.950;2023-04-30T13:21:57;97472.78;;;18.19;44.78